Aérodrome :
LOGIN :

S'inscrire | Disclaimer

   EN    FR    IT 

 










Légende :    VFR   VFR Marginal   IFR   IFR Intensif   IFR Très Intensif
Visi : 
Plafond : 
>= 8 km
>= 3000ft
5 à 8 km
1000 à 3000 ft
1500m à 5 km
500 à 1000 ft
800 à 1500m
200 à 500 ft
< 800m
< 200 ft
Symboles :   Orages  Brouillard  Fortes neiges  Fortes précipitations  Vent > 20 kt
SIGMETs :   Divers  Orages  Givrage  Turbulence  Onde Orograph.  Cendres Volcan.






- Altitude de l'aérodrome : 219 ft
- Code IATA : DNR


LFRD - Dinard

DERNIER METAR :
  • 212300Z AUTO 21010KT CAVOK 07/04 Q1028 NOSIG

METARs EXPIRÉS :
  • 212230Z AUTO 21012KT CAVOK 07/04 Q1028 NOSIG
  • 212200Z AUTO 21010KT CAVOK 07/04 Q1028 NOSIG
  • 212130Z AUTO 21010KT CAVOK 07/04 Q1028 NOSIG
  • 212100Z AUTO 21011KT CAVOK 07/04 Q1028 NOSIG

TAF TAF LFRD
Valide du 21 à 18h jusqu'au 22 à 18h UTC


211700Z 2118/2218 22012KT 9999 SCT030
TEMPO 2202/2215 21015G25KT
PROB30
TEMPO 2204/2207 BKN010
BECMG 2207/2209 BKN013
TEMPO 2211/2216 BKN008
BECMG 2216/2218 OVC008
TEMPO 2216/2218 4000 -DZ BKN004
ATIS : +33 2 99 16 81 50



MET'MAP, la Météo Aéronautique d'un coup d'oeil ! - Copyright ORBIFLY Décembre 2007 - Disclaimer

ORBIFLY MET'MAP TEAM :

Programmation & Développement : Alexandra Zaïnal
Sur une idée originale de : Baudouin d'Aumeries
Assistance à la programmation : Marc-Olivier Méhu
Soutien technique & logistique : Manuel Goepfert

Contact : metmap@orbifly.com




SOURCES & CREDITS :

   NOAA